Time;durP1;ratioP1;P1;durP2;ratioP2;P2;SDS_P1;SDS_P2;PMS_P1;PMS_P2;Temp;Humidity;BMP_temperature;BMP_pressure;BME280_temperature;BME280_humidity;BME280_pressure;Samples;Min_cycle;Max_cycle;Signal;HPM_P1;HPM_P2
2021/12/22 00:01:50;;;;;;;49.38;31.02;;;-3276.40;76.70;;;;;;4937410;29;20044;-84
2021/12/22 00:04:17;;;;;;;60.17;31.63;;;-3276.40;76.70;;;;;;4936988;29;20067;-84
2021/12/22 00:06:44;;;;;;;60.72;33.90;;;-3276.40;76.70;;;;;;4937685;29;20054;-84
2021/12/22 00:09:11;;;;;;;49.33;30.48;;;-3276.30;76.70;;;;;;4937479;29;20066;-84
2021/12/22 00:11:38;;;;;;;56.67;30.48;;;-3276.30;76.70;;;;;;4936572;29;20054;-84
2021/12/22 00:14:06;;;;;;;45.97;29.83;;;-3276.30;76.70;;;;;;4937130;29;20054;-84
2021/12/22 00:16:33;;;;;;;49.25;30.40;;;-3276.30;76.70;;;;;;4937142;29;20127;-84
2021/12/22 00:19:00;;;;;;;51.55;30.33;;;-3276.30;76.70;;;;;;4936715;29;20078;-84
2021/12/22 00:21:27;;;;;;;47.35;30.42;;;-3276.30;76.70;;;;;;4936092;29;20047;-84
2021/12/22 00:23:54;;;;;;;48.60;30.35;;;-3276.30;76.70;;;;;;4935465;29;20593;-84
2021/12/22 00:26:22;;;;;;;46.85;30.02;;;-3276.30;76.70;;;;;;4937003;29;20070;-84
2021/12/22 00:28:49;;;;;;;48.92;28.50;;;-3276.30;76.70;;;;;;4936880;29;20052;-85
2021/12/22 00:31:19;;;;;;;45.65;28.17;;;-3276.30;76.70;;;;;;4936944;29;20055;-86
2021/12/22 00:33:49;;;;;;;45.88;27.83;;;-3276.20;76.70;;;;;;4936686;29;20506;-84
2021/12/22 00:36:19;;;;;;;47.72;27.13;;;-3276.20;76.70;;;;;;4936933;29;20040;-84
2021/12/22 00:38:46;;;;;;;49.45;27.75;;;-3276.20;76.60;;;;;;4935981;29;20056;-84
2021/12/22 00:41:14;;;;;;;42.35;27.17;;;-3276.20;76.60;;;;;;4936689;29;20044;-84
2021/12/22 00:43:42;;;;;;;46.28;26.40;;;-3276.20;76.60;;;;;;4936694;29;20058;-84
2021/12/22 00:46:12;;;;;;;39.28;25.02;;;-3276.20;76.60;;;;;;4936531;29;20095;-85
2021/12/22 00:48:40;;;;;;;42.95;27.05;;;-3276.10;76.60;;;;;;4936285;29;20047;-84
2021/12/22 00:51:08;;;;;;;35.33;23.80;;;-3276.20;76.60;;;;;;4936522;29;20052;-84
2021/12/22 00:53:35;;;;;;;37.08;23.67;;;-3276.10;76.60;;;;;;4935791;29;20056;-84
2021/12/22 00:56:04;;;;;;;35.60;24.40;;;-3276.10;76.60;;;;;;4936264;29;20179;-84
2021/12/22 00:58:31;;;;;;;38.10;24.88;;;-3276.10;76.60;;;;;;4936352;29;20052;-83
2021/12/22 01:00:58;;;;;;;37.35;23.48;;;-3276.10;76.60;;;;;;4936167;29;20058;-85
2021/12/22 01:03:25;;;;;;;37.97;23.35;;;-3276.10;76.60;;;;;;4936017;29;20430;-84
2021/12/22 01:05:53;;;;;;;42.78;24.50;;;-3276.10;76.60;;;;;;4935535;29;20051;-85
2021/12/22 01:08:21;;;;;;;35.17;22.55;;;-3276.10;76.60;;;;;;4936006;29;20047;-84
2021/12/22 01:10:48;;;;;;;34.67;22.10;;;-3276.10;76.50;;;;;;4936115;29;20549;-84
2021/12/22 01:13:16;;;;;;;36.05;22.50;;;-3276.10;76.50;;;;;;4930847;29;20059;-84
2021/12/22 01:15:43;;;;;;;38.63;22.90;;;-3276.00;76.50;;;;;;4936290;29;20055;-84
2021/12/22 01:18:14;;;;;;;37.10;22.73;;;-3276.10;76.50;;;;;;4936058;29;20058;-84
2021/12/22 01:23:58;;;;;;;34.20;22.75;;;-3276.00;76.50;;;;;;4934761;29;20043;-84
2021/12/22 01:26:31;;;;;;;35.97;21.80;;;-3276.00;76.50;;;;;;4936431;29;20051;-84
2021/12/22 01:28:59;;;;;;;39.35;24.38;;;-3276.00;76.50;;;;;;4936022;29;20053;-83
2021/12/22 01:31:26;;;;;;;34.25;21.95;;;-3276.00;76.50;;;;;;4935521;29;20057;-83
2021/12/22 01:33:53;;;;;;;37.53;23.73;;;-3276.00;76.50;;;;;;4935873;29;20518;-84
2021/12/22 01:36:20;;;;;;;37.10;22.63;;;-3276.00;76.60;;;;;;4921003;29;20051;-83
2021/12/22 01:38:48;;;;;;;35.72;22.35;;;-3275.90;76.60;;;;;;4935107;29;20051;-84
2021/12/22 01:41:15;;;;;;;39.50;24.45;;;-3275.90;76.60;;;;;;4935782;29;20073;-84
2021/12/22 01:43:42;;;;;;;38.65;23.40;;;-3276.00;76.60;;;;;;4935724;29;20044;-84
2021/12/22 01:49:09;;;;;;;36.85;23.30;;;-3275.90;76.60;;;;;;4935436;29;20502;-84
2021/12/22 01:49:15;;;;;;;38.67;22.85;;;-3275.90;76.60;;;;;;4935681;29;20058;-84
2021/12/22 01:51:54;;;;;;;39.97;23.20;;;-3275.90;76.70;;;;;;4935663;29;20052;-84
2021/12/22 01:54:28;;;;;;;33.97;21.98;;;-3275.90;76.70;;;;;;4919754;29;20047;-84
2021/12/22 01:57:02;;;;;;;39.45;22.58;;;-3275.90;76.70;;;;;;4931708;29;20426;-84
2021/12/22 01:59:29;;;;;;;37.03;21.73;;;-3275.90;76.70;;;;;;4936625;29;20521;-84
2021/12/22 02:01:56;;;;;;;33.70;22.23;;;-3275.90;76.70;;;;;;4935312;29;20048;-84
2021/12/22 02:04:23;;;;;;;32.42;20.40;;;-3275.90;76.80;;;;;;4935608;29;20430;-85
2021/12/22 02:06:50;;;;;;;33.13;20.17;;;-3275.80;76.70;;;;;;4935962;29;20047;-84
2021/12/22 02:09:34;;;;;;;32.92;20.83;;;-3275.80;76.70;;;;;;4935719;29;20061;-84
2021/12/22 02:12:02;;;;;;;;;;;-3275.90;76.80;;;;;;4933469;29;20423;-84
2021/12/22 02:14:30;;;;;;;30.88;19.13;;;-3275.80;76.70;;;;;;4934432;28;19923;-84
2021/12/22 02:16:57;;;;;;;31.83;20.23;;;-3275.80;76.80;;;;;;4935550;29;20047;-85
2021/12/22 02:19:24;;;;;;;31.77;20.23;;;-3275.80;76.70;;;;;;4935326;29;20063;-84
2021/12/22 02:21:56;;;;;;;35.88;21.13;;;-3275.80;76.80;;;;;;4935596;29;20047;-84
2021/12/22 02:24:23;;;;;;;29.75;20.17;;;-3275.80;76.80;;;;;;4920855;29;20051;-84
2021/12/22 02:26:58;;;;;;;32.45;18.98;;;-3275.80;76.80;;;;;;4934729;29;20052;-84
2021/12/22 02:29:35;;;;;;;35.28;20.23;;;-3275.80;76.80;;;;;;4935699;29;20418;-84
2021/12/22 02:32:28;;;;;;;31.20;19.25;;;-3275.80;76.90;;;;;;4935292;29;20047;-84
2021/12/22 02:34:52;;;;;;;35.05;19.25;;;-3275.80;76.80;;;;;;4935156;28;20430;-84
2021/12/22 02:37:25;;;;;;;30.70;20.02;;;-3275.80;76.90;;;;;;4935372;29;20054;-85
2021/12/22 02:39:59;;;;;;;29.30;19.08;;;-3275.80;76.90;;;;;;4935402;29;20051;-85
2021/12/22 02:42:32;;;;;;;30.63;18.40;;;-3275.80;76.90;;;;;;4921270;29;20047;-84
2021/12/22 02:45:10;;;;;;;32.05;19.52;;;-3275.70;76.90;;;;;;4934293;29;20423;-84
2021/12/22 02:47:38;;;;;;;31.27;19.08;;;-3275.70;76.90;;;;;;4936478;29;20069;-86
2021/12/22 02:50:07;;;;;;;29.40;18.73;;;-3275.70;76.90;;;;;;4938847;29;20059;-85
2021/12/22 02:52:50;;;;;;;29.73;18.25;;;-3275.70;76.90;;;;;;4938862;29;20043;-84
2021/12/22 02:55:20;;;;;;;29.20;19.42;;;-3275.70;76.90;;;;;;4938381;29;20055;-84
2021/12/22 02:57:49;;;;;;;29.85;19.88;;;-3275.60;76.90;;;;;;4938736;29;20098;-85
2021/12/22 03:03:16;;;;;;;29.45;18.73;;;-3275.70;76.90;;;;;;4935499;29;20048;-85
2021/12/22 03:05:43;;;;;;;29.15;19.10;;;-3275.70;76.90;;;;;;4937367;29;20062;-84
2021/12/22 03:08:10;;;;;;;31.58;19.70;;;-3275.60;76.90;;;;;;4938329;29;20052;-84
2021/12/22 03:10:37;;;;;;;29.30;18.40;;;-3275.60;77.00;;;;;;4932981;29;20050;-85
2021/12/22 03:13:05;;;;;;;30.23;19.17;;;-3275.60;77.00;;;;;;4937953;29;20043;-84
2021/12/22 03:15:32;;;;;;;34.58;19.90;;;-3275.60;77.00;;;;;;4938323;29;20422;-85
2021/12/22 03:17:59;;;;;;;29.73;18.38;;;-3275.60;76.90;;;;;;4937668;29;20055;-84
2021/12/22 03:20:27;;;;;;;28.35;18.27;;;-3275.60;77.00;;;;;;4937692;28;20056;-85
2021/12/22 03:22:54;;;;;;;27.55;18.13;;;-3275.60;77.00;;;;;;4937990;29;20442;-85
2021/12/22 03:25:26;;;;;;;31.25;19.02;;;-3275.60;77.00;;;;;;4938240;29;20051;-84
2021/12/22 03:27:56;;;;;;;30.40;18.73;;;-3275.60;77.00;;;;;;4937850;29;20044;-85
2021/12/22 03:30:25;;;;;;;27.70;18.38;;;-3275.60;77.00;;;;;;4923561;29;20047;-85
2021/12/22 03:32:52;;;;;;;35.28;18.20;;;-3275.60;77.00;;;;;;4937213;29;20063;-84
2021/12/22 03:35:21;;;;;;;32.33;18.95;;;-3275.50;77.00;;;;;;4937778;29;20503;-84
2021/12/22 03:37:53;;;;;;;34.40;18.75;;;-3275.50;77.00;;;;;;4937727;29;20050;-84
2021/12/22 03:40:22;;;;;;;29.55;18.98;;;-3275.50;77.00;;;;;;4937856;29;20058;-85
2021/12/22 03:42:49;;;;;;;28.50;18.20;;;-3275.50;77.00;;;;;;4932669;29;20044;-84
2021/12/22 03:45:17;;;;;;;26.38;17.40;;;-3275.50;77.00;;;;;;4937683;29;20433;-85
2021/12/22 03:47:45;;;;;;;30.70;18.30;;;-3275.50;77.00;;;;;;4936121;29;20630;-84
2021/12/22 03:50:13;;;;;;;30.27;18.83;;;-3275.50;77.00;;;;;;4937630;29;20403;-85
2021/12/22 03:52:41;;;;;;;28.08;18.20;;;-3275.50;77.00;;;;;;4937647;29;20047;-85
2021/12/22 03:55:09;;;;;;;30.38;18.95;;;-3275.50;77.10;;;;;;4937381;29;20094;-85
2021/12/22 03:57:36;;;;;;;33.67;18.33;;;-3275.50;77.10;;;;;;4934987;29;20055;-85
2021/12/22 04:00:11;;;;;;;27.02;17.42;;;-3275.50;77.10;;;;;;4937612;29;20058;-84
2021/12/22 04:02:39;;;;;;;30.02;16.75;;;-3275.50;77.10;;;;;;4935683;29;20054;-84
2021/12/22 04:05:07;;;;;;;31.02;16.80;;;-3275.50;77.20;;;;;;4937479;29;20059;-85
2021/12/22 04:07:34;;;;;;;27.13;16.00;;;-3275.50;77.20;;;;;;4937276;29;20048;-84
2021/12/22 04:10:10;;;;;;;24.90;15.65;;;-3275.50;77.30;;;;;;4937337;29;20050;-84
2021/12/22 04:12:37;;;;;;;26.42;15.93;;;-3275.50;77.30;;;;;;4937090;29;20043;-84
2021/12/22 04:15:04;;;;;;;25.52;15.00;;;-3275.50;77.30;;;;;;4937013;29;20520;-84
2021/12/22 04:17:31;;;;;;;24.33;15.48;;;-3275.50;77.30;;;;;;4934474;29;20058;-85
2021/12/22 04:19:58;;;;;;;26.63;15.98;;;-3275.50;77.40;;;;;;4936997;29;20062;-84
2021/12/22 04:22:25;;;;;;;26.17;15.00;;;-3275.50;77.40;;;;;;4937176;29;20059;-84
2021/12/22 04:24:52;;;;;;;25.27;14.35;;;-3275.50;77.40;;;;;;4936854;29;20047;-84
2021/12/22 04:27:19;;;;;;;24.77;14.50;;;-3275.50;77.50;;;;;;4921973;29;20046;-84
2021/12/22 04:29:46;;;;;;;25.42;13.95;;;-3275.50;77.50;;;;;;4932197;29;20518;-84
2021/12/22 04:32:15;;;;;;;22.83;14.45;;;-3275.50;77.50;;;;;;4936749;29;20507;-84
2021/12/22 04:34:43;;;;;;;22.60;13.30;;;-3275.60;77.50;;;;;;4936872;29;20043;-85
2021/12/22 04:37:10;;;;;;;23.63;14.05;;;-3275.60;77.50;;;;;;4936716;29;20069;-84
2021/12/22 04:39:37;;;;;;;20.45;13.65;;;-3275.60;77.50;;;;;;4936432;29;20055;-84
2021/12/22 04:42:04;;;;;;;20.58;13.43;;;-3275.60;77.50;;;;;;4936982;29;20052;-84
2021/12/22 04:44:32;;;;;;;22.67;13.20;;;-3275.60;77.50;;;;;;4933999;29;20058;-84
2021/12/22 04:46:59;;;;;;;22.20;13.73;;;-3275.60;77.50;;;;;;4936592;29;20050;-84
2021/12/22 04:49:27;;;;;;;19.45;12.88;;;-3275.60;77.60;;;;;;4936461;29;20056;-84
2021/12/22 04:51:55;;;;;;;22.30;13.50;;;-3275.60;77.60;;;;;;4938047;29;20054;-84
2021/12/22 04:56:57;;;;;;;20.85;13.43;;;-3275.60;77.60;;;;;;4935753;29;20418;-84
2021/12/22 04:59:24;;;;;;;22.48;13.30;;;-3275.60;77.60;;;;;;4936952;29;20051;-84
2021/12/22 05:01:51;;;;;;;19.30;12.35;;;-3275.60;77.60;;;;;;4936387;29;20085;-84
2021/12/22 05:04:19;;;;;;;20.17;13.18;;;-3275.60;77.60;;;;;;4936245;29;20050;-84
2021/12/22 05:06:47;;;;;;;19.63;12.05;;;-3275.60;77.60;;;;;;4936516;29;20048;-84
2021/12/22 05:09:14;;;;;;;20.27;12.20;;;-3275.60;77.60;;;;;;4935957;29;20055;-84
2021/12/22 05:11:41;;;;;;;17.80;11.55;;;-3275.60;77.60;;;;;;4935602;29;20048;-84
2021/12/22 05:14:09;;;;;;;18.17;12.43;;;-3275.60;77.60;;;;;;4936006;29;20054;-84
2021/12/22 05:16:44;;;;;;;17.55;12.45;;;-3275.60;77.60;;;;;;4936224;29;20039;-84
2021/12/22 05:19:15;;;;;;;18.98;12.00;;;-3275.60;77.60;;;;;;4936197;29;20075;-84
2021/12/22 05:21:43;;;;;;;20.60;11.95;;;-3275.60;77.60;;;;;;4936228;29;20059;-85
2021/12/22 05:24:10;;;;;;;19.17;13.00;;;-3275.60;77.60;;;;;;4935804;29;20048;-84
2021/12/22 05:26:38;;;;;;;19.65;12.40;;;-3275.60;77.60;;;;;;4935240;29;20425;-84
2021/12/22 05:29:05;;;;;;;20.15;11.88;;;-3275.60;77.60;;;;;;4935946;29;20056;-85
2021/12/22 05:31:32;;;;;;;19.02;12.40;;;-3275.60;77.60;;;;;;4935891;29;20521;-84
2021/12/22 05:34:00;;;;;;;20.88;12.57;;;-3275.60;77.60;;;;;;4930499;29;20055;-84
2021/12/22 05:36:28;;;;;;;17.30;12.65;;;-3275.50;77.60;;;;;;4936126;29;20135;-84
2021/12/22 05:38:56;;;;;;;20.65;11.85;;;-3275.60;77.60;;;;;;4934580;29;20055;-84
2021/12/22 05:41:23;;;;;;;20.88;11.65;;;-3275.50;77.60;;;;;;4936297;29;20058;-85
2021/12/22 05:43:50;;;;;;;23.70;11.07;;;-3275.50;77.60;;;;;;4937989;29;20054;-84
2021/12/22 05:46:17;;;;;;;19.30;12.43;;;-3275.50;77.50;;;;;;4935815;29;20065;-84
2021/12/22 05:48:47;;;;;;;18.15;12.63;;;-3275.50;77.50;;;;;;4935879;29;20039;-84
2021/12/22 05:51:14;;;;;;;21.10;12.02;;;-3275.50;77.50;;;;;;4935745;29;20051;-84
2021/12/22 05:53:41;;;;;;;20.35;12.50;;;-3275.50;77.50;;;;;;4934718;29;20043;-84
2021/12/22 05:56:08;;;;;;;19.73;12.10;;;-3275.50;77.50;;;;;;4935551;29;20055;-84
2021/12/22 05:58:35;;;;;;;21.60;12.93;;;-3275.40;77.50;;;;;;4935717;29;20494;-84
2021/12/22 06:01:02;;;;;;;25.27;12.75;;;-3275.40;77.50;;;;;;4937961;29;20059;-84
2021/12/22 06:03:30;;;;;;;21.65;12.75;;;-3275.40;77.50;;;;;;4935529;29;20046;-84
2021/12/22 06:05:58;;;;;;;21.92;13.02;;;-3275.40;77.50;;;;;;4935135;29;20059;-84
2021/12/22 06:08:25;;;;;;;20.77;12.48;;;-3275.40;77.50;;;;;;4936001;29;20060;-86
2021/12/22 06:10:52;;;;;;;21.95;12.70;;;-3275.40;77.50;;;;;;4930153;29;20445;-84
2021/12/22 06:13:19;;;;;;;22.35;14.05;;;-3275.40;77.50;;;;;;4936890;29;20504;-85
2021/12/22 06:15:46;;;;;;;22.50;13.60;;;-3275.40;77.50;;;;;;4935760;29;20449;-84
2021/12/22 06:18:15;;;;;;;19.98;12.55;;;-3275.40;77.50;;;;;;4935589;29;20139;-85
2021/12/22 06:20:42;;;;;;;20.95;12.80;;;-3275.40;77.50;;;;;;4934840;29;20142;-85
2021/12/22 06:23:11;;;;;;;18.95;11.95;;;-3275.30;77.50;;;;;;4938829;29;20434;-84
2021/12/22 06:25:38;;;;;;;19.73;13.02;;;-3275.30;77.50;;;;;;4939103;29;20419;-84
2021/12/22 06:28:06;;;;;;;20.75;13.43;;;-3275.30;77.50;;;;;;4940786;29;20051;-84
2021/12/22 06:30:33;;;;;;;21.50;13.15;;;-3275.30;77.50;;;;;;4939323;29;20411;-84
2021/12/22 06:33:00;;;;;;;20.80;12.60;;;-3275.30;77.50;;;;;;4938522;29;20047;-85
2021/12/22 06:35:27;;;;;;;19.77;13.00;;;-3275.30;77.50;;;;;;4938306;28;20056;-84
2021/12/22 06:37:54;;;;;;;21.77;12.73;;;-3275.30;77.50;;;;;;4938922;29;20047;-84
2021/12/22 06:40:21;;;;;;;19.70;13.35;;;-3275.30;77.50;;;;;;4938957;29;20437;-84
2021/12/22 06:42:48;;;;;;;19.90;13.05;;;-3275.30;77.50;;;;;;4938933;29;20040;-84
2021/12/22 06:45:16;;;;;;;21.90;13.05;;;-3275.30;77.50;;;;;;4938864;29;20051;-84
2021/12/22 06:47:43;;;;;;;18.75;13.63;;;-3275.30;77.50;;;;;;4936934;29;20418;-84
2021/12/22 06:50:10;;;;;;;24.38;12.93;;;-3275.30;77.50;;;;;;4938263;29;20051;-84
2021/12/22 06:52:37;;;;;;;23.90;13.85;;;-3275.30;77.50;;;;;;4938508;29;20434;-84
2021/12/22 06:55:06;;;;;;;19.58;13.27;;;-3275.20;77.40;;;;;;4938469;29;20051;-84
2021/12/22 06:57:34;;;;;;;21.35;13.85;;;-3275.20;77.50;;;;;;4938710;29;20050;-84
2021/12/22 07:00:03;;;;;;;22.77;13.23;;;-3275.20;77.50;;;;;;4938085;29;20043;-84
2021/12/22 07:02:35;;;;;;;21.55;13.90;;;-3275.20;77.50;;;;;;4935777;29;20142;-84
2021/12/22 07:05:08;;;;;;;22.02;14.65;;;-3275.20;77.50;;;;;;4938110;29;20050;-84
2021/12/22 07:07:36;;;;;;;23.67;14.80;;;-3275.20;77.50;;;;;;4938446;29;20429;-85
2021/12/22 07:10:07;;;;;;;25.25;15.23;;;-3275.20;77.50;;;;;;4938536;29;20044;-85
2021/12/22 07:12:35;;;;;;;24.70;14.82;;;-3275.10;77.50;;;;;;4938442;29;20047;-85
2021/12/22 07:15:03;;;;;;;24.63;14.82;;;-3275.20;77.50;;;;;;4937920;29;20059;-84
2021/12/22 07:17:30;;;;;;;26.42;14.55;;;-3275.10;77.50;;;;;;4937532;28;20054;-84
2021/12/22 07:19:57;;;;;;;22.48;14.32;;;-3275.10;77.60;;;;;;4937887;29;20043;-84
2021/12/22 07:22:24;;;;;;;24.52;15.00;;;-3275.10;77.60;;;;;;4938268;29;20048;-84
2021/12/22 07:24:51;;;;;;;27.38;15.43;;;-3275.10;77.60;;;;;;4938334;29;20043;-84
2021/12/22 07:27:18;;;;;;;26.58;15.63;;;-3275.10;77.60;;;;;;4938263;29;20055;-84
2021/12/22 07:29:45;;;;;;;23.50;15.18;;;-3275.10;77.70;;;;;;4937451;29;20048;-84
2021/12/22 07:32:12;;;;;;;26.92;17.70;;;-3275.10;77.70;;;;;;4937599;29;20517;-84
2021/12/22 07:34:52;;;;;;;30.17;19.23;;;-3275.10;77.80;;;;;;4937659;29;20066;-84
2021/12/22 07:37:23;;;;;;;30.48;18.15;;;-3275.10;77.90;;;;;;4937905;29;20044;-84
2021/12/22 07:39:49;;;;;;;29.02;18.00;;;-3275.10;77.90;;;;;;4937902;29;20425;-84
2021/12/22 07:42:16;;;;;;;26.95;16.70;;;-3275.10;78.00;;;;;;4935618;29;20047;-84
2021/12/22 07:44:44;;;;;;;28.70;17.88;;;-3275.10;78.20;;;;;;4936773;29;20044;-84
2021/12/22 07:47:11;;;;;;;30.75;17.67;;;-3275.20;78.30;;;;;;4937132;29;20522;-84
2021/12/22 07:49:38;;;;;;;30.65;18.10;;;-3275.10;78.30;;;;;;4938223;29;20040;-84
2021/12/22 07:52:06;;;;;;;28.42;17.17;;;-3275.20;78.40;;;;;;4937511;29;20052;-84
2021/12/22 07:54:33;;;;;;;28.35;17.73;;;-3275.20;78.50;;;;;;4937445;29;20069;-84
2021/12/22 07:57:00;;;;;;;26.67;17.88;;;-3275.20;78.60;;;;;;4936295;29;20094;-84
2021/12/22 07:59:27;;;;;;;31.48;17.92;;;-3275.30;78.70;;;;;;4936798;28;20059;-83
2021/12/22 08:01:54;;;;;;;27.85;17.90;;;-3275.30;78.70;;;;;;4937437;29;20503;-84
2021/12/22 08:04:21;;;;;;;32.75;18.33;;;-3275.30;78.80;;;;;;4936359;29;20594;-84
2021/12/22 08:06:48;;;;;;;33.58;18.98;;;-3275.30;78.80;;;;;;4937228;29;20055;-83
2021/12/22 08:09:16;;;;;;;27.02;18.08;;;-3275.30;78.90;;;;;;4937039;29;20399;-83
2021/12/22 08:11:43;;;;;;;28.20;18.23;;;-3275.30;79.00;;;;;;4935593;29;20404;-84
2021/12/22 08:14:10;;;;;;;33.60;19.55;;;-3275.40;79.10;;;;;;4936776;29;20135;-84
2021/12/22 08:16:37;;;;;;;34.08;18.50;;;-3275.40;79.10;;;;;;4936992;29;20506;-84
2021/12/22 08:19:04;;;;;;;29.42;19.38;;;-3275.40;79.20;;;;;;4936009;29;20048;-84
2021/12/22 08:21:31;;;;;;;34.05;19.75;;;-3275.40;79.30;;;;;;4936843;29;20537;-84
2021/12/22 08:23:58;;;;;;;32.15;20.90;;;-3275.40;79.40;;;;;;4935889;29;20048;-84
2021/12/22 08:26:25;;;;;;;28.85;19.52;;;-3275.50;79.50;;;;;;4936214;28;20052;-84
2021/12/22 08:28:53;;;;;;;31.40;20.23;;;-3275.60;79.50;;;;;;4936646;29;20426;-84
2021/12/22 08:31:20;;;;;;;34.15;20.35;;;-3275.60;79.60;;;;;;4936325;29;20058;-83
2021/12/22 08:33:48;;;;;;;28.20;19.13;;;-3275.60;79.70;;;;;;4936311;29;20052;-84
2021/12/22 08:39:05;;;;;;;37.85;20.48;;;-3275.60;79.80;;;;;;4934320;29;20043;-83
2021/12/22 08:41:36;;;;;;;32.42;21.95;;;-3275.70;79.80;;;;;;4933553;29;20057;-83
2021/12/22 08:44:09;;;;;;;31.55;19.77;;;-3275.70;79.90;;;;;;4935775;29;20511;-84
2021/12/22 08:46:40;;;;;;;33.28;20.60;;;-3275.70;80.00;;;;;;4935992;29;20601;-83
2021/12/22 08:49:07;;;;;;;32.28;20.83;;;-3275.80;80.00;;;;;;4935778;29;20138;-83
2021/12/22 08:51:37;;;;;;;33.00;21.13;;;-3275.80;80.10;;;;;;4935205;29;20540;-84
2021/12/22 08:54:05;;;;;;;29.67;21.17;;;-3275.80;80.10;;;;;;4936172;29;20054;-84
2021/12/22 08:56:33;;;;;;;32.42;22.05;;;-3275.90;80.20;;;;;;4932956;29;20059;-83
2021/12/22 08:59:00;;;;;;;37.00;22.13;;;-3275.90;80.20;;;;;;4936173;29;20054;-83
2021/12/22 09:01:29;;;;;;;34.08;22.45;;;-3275.90;80.20;;;;;;4935710;29;20107;-84
2021/12/22 09:03:57;;;;;;;32.83;22.38;;;-3275.90;80.30;;;;;;4935676;29;20103;-83
2021/12/22 09:06:25;;;;;;;31.58;21.67;;;-3276.00;80.30;;;;;;4936182;29;20049;-83
2021/12/22 09:08:52;;;;;;;32.83;21.60;;;-3276.00;80.30;;;;;;4935052;29;20054;-83
2021/12/22 09:11:20;;;;;;;33.67;21.52;;;-3276.10;80.30;;;;;;4935225;29;20055;-84
2021/12/22 09:13:47;;;;;;;35.13;22.02;;;-3276.10;80.40;;;;;;4935862;29;20047;-83
2021/12/22 09:16:14;;;;;;;33.53;21.20;;;-3276.10;80.40;;;;;;4935818;29;20059;-84
2021/12/22 09:18:41;;;;;;;33.70;21.70;;;-3276.10;80.40;;;;;;4935669;29;20510;-84
2021/12/22 09:21:11;;;;;;;33.60;22.55;;;-3276.20;80.40;;;;;;4935670;29;20474;-84
2021/12/22 09:23:39;;;;;;;31.52;22.20;;;-3276.20;80.40;;;;;;4934873;29;20052;-84
2021/12/22 09:26:07;;;;;;;35.70;21.85;;;-3276.20;80.50;;;;;;4935426;29;20062;-84
2021/12/22 09:28:35;;;;;;;32.38;21.48;;;-3276.30;80.50;;;;;;4935964;29;20062;-84
2021/12/22 09:31:04;;;;;;;30.63;20.60;;;-3276.30;80.50;;;;;;4935013;29;20061;-84
2021/12/22 09:33:32;;;;;;;31.80;21.40;;;-3276.30;80.50;;;;;;4935347;29;20426;-84
2021/12/22 09:36:00;;;;;;;32.17;21.08;;;-3276.30;80.50;;;;;;4934840;29;20058;-83
2021/12/22 09:38:27;;;;;;;30.55;21.70;;;-3276.30;80.50;;;;;;4935737;28;20051;-84
2021/12/22 09:40:59;;;;;;;32.13;21.98;;;-3276.40;80.50;;;;;;4935089;29;20047;-83
2021/12/22 09:43:27;;;;;;;32.42;22.00;;;-3276.40;80.50;;;;;;4934248;29;20048;-83
2021/12/22 09:46:00;;;;;;;31.27;22.73;;;-3276.40;80.50;;;;;;4935298;29;20044;-83
2021/12/22 09:48:49;;;;;;;31.85;22.40;;;-3276.40;80.60;;;;;;4932512;29;20442;-83
2021/12/22 09:53:53;;;;;;;37.63;22.20;;;-3276.60;80.60;;;;;;4930367;29;20063;-83
2021/12/22 09:56:24;;;;;;;37.65;24.98;;;-3276.60;80.70;;;;;;4937799;29;20518;-82
2021/12/22 09:58:52;;;;;;;35.97;22.92;;;0.00;80.70;;;;;;4938943;29;20421;-82
2021/12/22 10:01:23;;;;;;;34.60;23.52;;;0.00;80.70;;;;;;4938891;29;20522;-82
2021/12/22 10:05:21;;;;;;;36.80;23.35;;;0.10;80.60;;;;;;5050435;28;20411;-82
2021/12/22 10:08:18;;;;;;;33.40;23.15;;;0.20;80.60;;;;;;5048883;28;20086;-82
2021/12/22 10:10:50;;;;;;;32.08;23.65;;;0.40;80.50;;;;;;5050127;28;20585;-82
2021/12/22 10:13:25;;;;;;;34.03;22.90;;;0.50;80.30;;;;;;5049759;28;20041;-81
2021/12/22 10:15:52;;;;;;;32.42;22.00;;;0.70;80.20;;;;;;5049807;28;20056;-81
2021/12/22 10:18:23;;;;;;;32.90;22.48;;;0.80;80.00;;;;;;5034089;28;20128;-81
2021/12/22 10:21:07;;;;;;;36.35;21.77;;;0.90;79.90;;;;;;5045180;28;20050;-80
2021/12/22 10:23:35;;;;;;;31.80;22.42;;;1.00;79.60;;;;;;5047405;28;20053;-81
2021/12/22 10:26:06;;;;;;;35.72;22.48;;;1.10;79.40;;;;;;5082225;28;20110;-80
2021/12/22 10:28:57;;;;;;;33.55;21.80;;;1.30;79.10;;;;;;5049582;28;20498;-81
2021/12/22 10:31:48;;;;;;;30.77;21.10;;;1.40;78.90;;;;;;5050098;28;20041;-80
2021/12/22 10:34:17;;;;;;;31.50;22.42;;;1.50;78.60;;;;;;5049761;28;20052;-80
2021/12/22 10:36:51;;;;;;;32.17;21.60;;;1.50;78.30;;;;;;5049948;28;20509;-81
2021/12/22 10:39:27;;;;;;;35.72;21.52;;;1.70;78.10;;;;;;5049852;28;20509;-80
2021/12/22 10:42:09;;;;;;;30.48;21.48;;;1.70;77.90;;;;;;5045290;28;20051;-81
2021/12/22 10:44:42;;;;;;;29.15;21.35;;;1.80;77.60;;;;;;5048810;28;20059;-81
2021/12/22 10:47:19;;;;;;;32.28;20.80;;;1.90;77.40;;;;;;5081588;28;20045;-80
2021/12/22 10:49:59;;;;;;;32.33;21.48;;;1.90;77.20;;;;;;5049464;28;20049;-80
2021/12/22 10:52:27;;;;;;;29.50;20.85;;;2.00;77.00;;;;;;5049387;28;20045;-81
2021/12/22 10:55:13;;;;;;;39.35;20.98;;;2.00;76.90;;;;;;5049583;28;20053;-81
2021/12/22 10:57:42;;;;;;;30.90;20.73;;;2.10;76.70;;;;;;5036042;28;20051;-80
2021/12/22 11:00:22;;;;;;;29.40;19.92;;;2.10;76.60;;;;;;5049567;28;20148;-80
2021/12/22 11:03:05;;;;;;;28.52;20.92;;;2.10;76.40;;;;;;5044619;28;20049;-82
2021/12/22 11:05:51;;;;;;;31.40;21.20;;;2.20;76.30;;;;;;5046657;28;20073;-80
2021/12/22 11:08:24;;;;;;;31.15;21.02;;;2.20;76.20;;;;;;5050746;28;20067;-80
2021/12/22 11:10:52;;;;;;;29.83;21.42;;;2.20;76.10;;;;;;5048817;28;20041;-80
2021/12/22 11:13:21;;;;;;;32.90;21.02;;;2.20;76.10;;;;;;5049205;28;20539;-80
2021/12/22 11:15:49;;;;;;;28.58;20.80;;;2.10;76.00;;;;;;5041117;28;20072;-81
2021/12/22 11:18:26;;;;;;;28.63;21.67;;;2.10;75.90;;;;;;5035957;28;20037;-81
2021/12/22 11:21:22;;;;;;;28.85;20.95;;;2.10;75.90;;;;;;5031501;28;20052;-81
2021/12/22 11:23:49;;;;;;;28.35;20.50;;;2.10;75.80;;;;;;5030908;28;20406;-81
2021/12/22 11:26:16;;;;;;;29.88;22.13;;;2.00;75.80;;;;;;5035424;28;20152;-81
2021/12/22 11:28:44;;;;;;;31.92;21.27;;;2.00;75.80;;;;;;5035751;28;20395;-81
2021/12/22 11:31:11;;;;;;;30.60;21.88;;;2.00;75.80;;;;;;5035602;28;20049;-82
2021/12/22 11:33:45;;;;;;;28.35;21.13;;;1.90;75.90;;;;;;5034429;28;20056;-82
2021/12/22 11:36:14;;;;;;;32.90;21.52;;;1.90;76.00;;;;;;5035613;28;20198;-81
2021/12/22 11:38:41;;;;;;;34.15;20.58;;;1.90;76.00;;;;;;5034790;28;20051;-81
2021/12/22 11:41:13;;;;;;;30.33;21.95;;;1.80;76.10;;;;;;5035077;28;20046;-81
2021/12/22 11:43:42;;;;;;;31.17;21.30;;;1.80;76.20;;;;;;5035238;28;20055;-80
2021/12/22 11:46:10;;;;;;;31.90;22.98;;;1.80;76.20;;;;;;5031810;28;20049;-81
2021/12/22 11:48:41;;;;;;;29.63;21.42;;;1.80;76.40;;;;;;5034526;28;20060;-81
2021/12/22 11:51:30;;;;;;;28.52;22.15;;;1.70;76.50;;;;;;5034866;28;20049;-80
2021/12/22 11:54:07;;;;;;;28.98;21.55;;;1.70;76.60;;;;;;5030968;28;20049;-80
2021/12/22 11:56:49;;;;;;;31.17;22.17;;;1.70;76.70;;;;;;5033418;28;20055;-80
2021/12/22 11:59:29;;;;;;;32.80;22.73;;;1.70;76.70;;;;;;5034868;28;20053;-80
2021/12/22 12:02:19;;;;;;;30.80;21.20;;;1.60;76.80;;;;;;5066518;28;20045;-80
2021/12/22 12:04:52;;;;;;;31.17;21.23;;;1.70;76.90;;;;;;5030225;28;20061;-81
2021/12/22 12:07:55;;;;;;;31.05;22.23;;;1.60;77.00;;;;;;5034673;28;20041;-80
2021/12/22 12:10:34;;;;;;;29.50;22.42;;;1.60;77.10;;;;;;5034084;28;20038;-80
2021/12/22 12:13:36;;;;;;;34.90;23.15;;;1.50;77.20;;;;;;5034390;28;20420;-81
2021/12/22 12:21:57;;;;;;;35.33;23.13;;;1.50;77.30;;;;;;5034520;28;20074;-80
2021/12/22 12:24:42;;;;;;;34.53;23.30;;;1.50;77.50;;;;;;5018605;28;20402;-80
2021/12/22 12:27:30;;;;;;;34.95;24.55;;;1.50;77.60;;;;;;5033141;28;20045;-80
2021/12/22 12:30:13;;;;;;;32.78;22.98;;;1.40;77.70;;;;;;5030568;28;20045;-81
2021/12/22 12:32:40;;;;;;;35.83;25.40;;;1.40;77.80;;;;;;5033195;28;20045;-80
2021/12/22 12:35:20;;;;;;;36.38;25.00;;;1.40;77.80;;;;;;5034144;28;20053;-80
2021/12/22 12:38:14;;;;;;;33.13;23.52;;;1.40;77.90;;;;;;5033832;28;20417;-80
2021/12/22 12:41:00;;;;;;;34.60;24.23;;;1.40;78.00;;;;;;5033797;28;20447;-80
2021/12/22 12:43:46;;;;;;;37.50;25.08;;;1.40;78.10;;;;;;5034002;28;20045;-81